createdAt,value
2017-09-29T00:01:43.359Z,86.58
2017-09-29T00:04:11.834Z,86.51
2017-09-29T00:06:40.281Z,86.57
2017-09-29T00:09:09.522Z,86.41
2017-09-29T00:11:37.974Z,86.33
2017-09-29T00:14:06.443Z,86.53
2017-09-29T00:16:35.656Z,86.47
2017-09-29T00:19:04.134Z,86.06
2017-09-29T00:21:32.586Z,86.13
2017-09-29T00:24:01.061Z,86.40
2017-09-29T00:26:29.544Z,86.11
2017-09-29T00:28:57.977Z,86.27
2017-09-29T00:31:26.450Z,86.22
2017-09-29T00:33:54.963Z,86.39
2017-09-29T00:36:23.437Z,86.46
2017-09-29T00:38:51.931Z,86.41
2017-09-29T00:41:20.498Z,86.31
2017-09-29T00:43:48.937Z,86.23
2017-09-29T00:46:18.286Z,86.30
2017-09-29T00:48:46.734Z,86.36
2017-09-29T00:51:15.971Z,86.34
2017-09-29T00:53:44.412Z,86.39
2017-09-29T00:56:13.751Z,86.55
2017-09-29T00:58:42.198Z,86.46
2017-09-29T01:01:14.702Z,86.64
2017-09-29T01:03:43.147Z,86.76
2017-09-29T01:06:12.382Z,86.58
2017-09-29T01:08:40.825Z,86.42
2017-09-29T01:11:10.042Z,86.53
2017-09-29T01:13:38.518Z,86.48
2017-09-29T01:16:07.720Z,86.59
2017-09-29T01:18:36.955Z,86.38
2017-09-29T01:21:05.421Z,86.40
2017-09-29T01:23:33.890Z,86.70
2017-09-29T01:26:02.333Z,86.48
2017-09-29T01:28:30.868Z,86.76
2017-09-29T01:30:59.309Z,86.64
2017-09-29T01:33:28.547Z,86.71
2017-09-29T01:35:57.043Z,87.22
2017-09-29T01:38:25.618Z,87.26
2017-09-29T01:40:54.064Z,88.13
2017-09-29T01:43:23.403Z,88.58
2017-09-29T01:45:51.881Z,88.33
2017-09-29T01:48:20.358Z,88.80
2017-09-29T01:50:48.796Z,88.87
2017-09-29T01:53:17.324Z,88.14
2017-09-29T01:55:45.784Z,88.81
2017-09-29T01:58:15.019Z,88.95
2017-09-29T02:00:43.498Z,88.62
2017-09-29T02:03:11.980Z,90.48
2017-09-29T02:05:40.449Z,89.38
2017-09-29T02:08:08.898Z,89.31
2017-09-29T02:10:38.246Z,89.38
2017-09-29T02:13:06.685Z,88.89
2017-09-29T02:15:36.009Z,89.52
2017-09-29T02:18:04.452Z,89.00
2017-09-29T02:20:32.987Z,89.86
2017-09-29T02:23:01.434Z,89.19
2017-09-29T02:25:30.667Z,90.25
2017-09-29T02:27:59.105Z,89.60
2017-09-29T02:30:28.338Z,89.15
2017-09-29T02:32:56.838Z,89.11
2017-09-29T02:35:25.421Z,89.32
2017-09-29T02:37:53.866Z,89.84
2017-09-29T02:40:23.078Z,89.74
2017-09-29T02:42:51.545Z,90.41
2017-09-29T02:45:20.748Z,90.29
2017-09-29T02:47:50.118Z,89.70
2017-09-29T02:50:18.567Z,89.50
2017-09-29T02:52:47.202Z,89.64
2017-09-29T02:55:16.410Z,89.32
2017-09-29T02:57:49.418Z,89.02
2017-09-29T03:00:18.965Z,88.90
2017-09-29T03:02:49.546Z,88.66
2017-09-29T03:05:23.622Z,88.76
2017-09-29T03:07:52.089Z,88.99
2017-09-29T03:10:20.537Z,89.32
2017-09-29T03:12:49.013Z,88.45
2017-09-29T03:15:17.517Z,89.04
2017-09-29T03:17:46.093Z,89.00
2017-09-29T03:20:14.553Z,88.82
2017-09-29T03:22:43.782Z,88.63
2017-09-29T03:25:12.254Z,88.78
2017-09-29T03:27:40.697Z,88.49
2017-09-29T03:30:09.922Z,88.68
2017-09-29T03:32:38.426Z,88.80
2017-09-29T03:35:06.894Z,88.88
2017-09-29T03:37:35.391Z,88.43
2017-09-29T03:40:03.858Z,88.62
2017-09-29T03:42:32.302Z,88.55
2017-09-29T03:45:00.837Z,88.54
2017-09-29T03:47:29.282Z,88.80
2017-09-29T03:49:59.434Z,88.47
2017-09-29T03:52:30.244Z,88.61
2017-09-29T03:55:00.657Z,88.46
2017-09-29T03:57:34.489Z,89.37
2017-09-29T04:00:02.953Z,88.85
2017-09-29T04:02:32.170Z,88.83
2017-09-29T04:05:00.776Z,88.47
2017-09-29T04:07:29.218Z,88.46
2017-09-29T04:09:58.426Z,88.45
2017-09-29T04:12:27.749Z,88.21
2017-09-29T04:14:56.243Z,88.45
2017-09-29T04:17:24.705Z,88.86
2017-09-29T04:19:53.149Z,88.58
2017-09-29T04:22:21.612Z,87.95
2017-09-29T04:24:50.054Z,88.33
2017-09-29T04:27:18.521Z,88.60
2017-09-29T04:29:46.960Z,87.45
2017-09-29T04:32:15.434Z,87.56
2017-09-29T04:34:43.882Z,87.95
2017-09-29T04:37:12.349Z,87.69
2017-09-29T04:39:40.793Z,88.06
2017-09-29T04:42:09.290Z,87.59
2017-09-29T04:44:38.938Z,88.47
2017-09-29T04:47:07.386Z,88.13
2017-09-29T04:49:36.622Z,88.27
2017-09-29T04:52:05.065Z,87.95
2017-09-29T04:54:34.300Z,87.91
2017-09-29T04:57:02.790Z,88.09
2017-09-29T04:59:31.490Z,89.21
2017-09-29T05:01:59.959Z,88.75
2017-09-29T05:04:28.436Z,88.20
2017-09-29T05:06:56.881Z,87.88
2017-09-29T05:09:26.123Z,88.68
2017-09-29T05:11:55.201Z,88.35
2017-09-29T05:14:23.671Z,88.47
2017-09-29T05:16:52.117Z,87.74
2017-09-29T05:19:20.582Z,87.27
2017-09-29T05:21:49.026Z,87.21
2017-09-29T05:24:17.526Z,87.05
2017-09-29T05:26:45.965Z,86.79
2017-09-29T05:29:15.313Z,87.08
2017-09-29T05:31:43.762Z,87.07
2017-09-29T05:34:12.210Z,86.24
2017-09-29T05:36:40.677Z,87.18
2017-09-29T05:39:09.117Z,87.19
2017-09-29T05:41:37.621Z,87.18
2017-09-29T05:44:06.058Z,86.54
2017-09-29T05:46:35.290Z,86.66
2017-09-29T05:49:03.752Z,86.96
2017-09-29T05:51:32.258Z,86.45
2017-09-29T05:54:00.713Z,86.80
2017-09-29T05:56:29.946Z,86.96
2017-09-29T05:58:58.420Z,86.90
2017-09-29T06:01:26.893Z,87.06
2017-09-29T06:03:55.386Z,86.45
2017-09-29T06:06:23.973Z,85.94
2017-09-29T06:08:53.173Z,85.66
2017-09-29T06:11:21.613Z,86.14
2017-09-29T06:13:50.850Z,86.47
2017-09-29T06:16:19.337Z,85.87
2017-09-29T06:18:47.812Z,85.68
2017-09-29T06:21:16.259Z,86.07
2017-09-29T06:23:45.598Z,85.83
2017-09-29T06:26:14.086Z,85.38
2017-09-29T06:28:42.554Z,85.28
2017-09-29T06:31:11.001Z,85.09
2017-09-29T06:33:40.325Z,85.13
2017-09-29T06:36:08.769Z,84.98
2017-09-29T06:38:37.317Z,84.04
2017-09-29T06:41:05.795Z,84.52
2017-09-29T06:43:34.277Z,84.03
2017-09-29T06:46:02.760Z,84.06
2017-09-29T06:48:31.245Z,83.44
2017-09-29T06:50:59.724Z,83.64
2017-09-29T06:53:28.207Z,84.05
2017-09-29T06:55:56.669Z,83.72
2017-09-29T06:58:25.113Z,83.75
2017-09-29T07:00:53.582Z,83.97
2017-09-29T07:03:22.854Z,83.84
2017-09-29T07:05:51.430Z,83.63
2017-09-29T07:08:19.873Z,83.62
2017-09-29T07:10:49.121Z,83.76
2017-09-29T07:13:17.566Z,83.07
2017-09-29T07:15:46.897Z,82.77
2017-09-29T07:18:15.345Z,82.01
2017-09-29T07:20:44.681Z,81.57
2017-09-29T07:23:13.130Z,81.34
2017-09-29T07:25:44.070Z,81.67
2017-09-29T07:28:17.645Z,81.00
2017-09-29T07:30:48.582Z,81.71
2017-09-29T07:33:17.024Z,81.41
2017-09-29T07:35:45.610Z,81.24
2017-09-29T07:38:14.049Z,80.99
2017-09-29T07:40:43.286Z,80.64
2017-09-29T07:43:11.734Z,80.50
2017-09-29T07:45:40.994Z,80.61
2017-09-29T07:48:09.554Z,80.17
2017-09-29T07:50:38.002Z,80.32
2017-09-29T07:53:07.329Z,79.96
2017-09-29T07:55:35.769Z,80.59
2017-09-29T07:58:05.115Z,79.65
2017-09-29T08:00:33.553Z,79.51
2017-09-29T08:03:02.790Z,79.55
2017-09-29T08:05:31.237Z,79.18
2017-09-29T08:08:00.581Z,79.08
2017-09-29T08:10:29.171Z,79.16
2017-09-29T08:12:57.652Z,78.79
2017-09-29T08:15:26.133Z,78.62
2017-09-29T08:17:54.598Z,78.40
2017-09-29T08:20:23.049Z,77.98
2017-09-29T08:22:52.287Z,78.42
2017-09-29T08:25:20.740Z,77.63
2017-09-29T08:27:49.982Z,77.64
2017-09-29T08:30:18.421Z,77.03
2017-09-29T08:32:47.658Z,76.59
2017-09-29T08:35:16.097Z,76.71
2017-09-29T08:37:45.338Z,76.16
2017-09-29T08:40:13.922Z,76.15
2017-09-29T08:42:42.369Z,76.07
2017-09-29T08:45:11.698Z,75.47
2017-09-29T08:47:40.137Z,74.39
2017-09-29T08:50:09.372Z,74.35
2017-09-29T08:52:37.814Z,74.04
2017-09-29T08:55:06.282Z,74.45
2017-09-29T08:57:34.853Z,74.10
2017-09-29T09:00:03.417Z,74.45
2017-09-29T09:02:31.902Z,75.05
2017-09-29T09:05:00.483Z,74.58
2017-09-29T09:07:28.930Z,74.91
2017-09-29T09:09:58.268Z,74.54
2017-09-29T09:12:26.713Z,73.26
2017-09-29T09:14:55.929Z,73.41
2017-09-29T09:17:24.431Z,73.76
2017-09-29T09:19:52.874Z,73.40
2017-09-29T09:22:22.114Z,71.53
2017-09-29T09:24:50.592Z,71.56
2017-09-29T09:27:19.071Z,71.07
2017-09-29T09:29:47.513Z,71.96
2017-09-29T09:32:16.742Z,71.89
2017-09-29T09:34:45.185Z,72.12
2017-09-29T09:37:14.539Z,71.45
2017-09-29T09:39:43.016Z,72.12
2017-09-29T09:42:11.490Z,71.15
2017-09-29T09:44:39.938Z,70.94
2017-09-29T09:47:09.169Z,69.83
2017-09-29T09:49:37.614Z,70.11
2017-09-29T09:52:06.850Z,70.48
2017-09-29T09:54:35.662Z,70.29
2017-09-29T09:57:04.238Z,69.97
2017-09-29T09:59:32.690Z,70.42
2017-09-29T10:02:01.918Z,70.44
2017-09-29T10:04:30.399Z,69.81
2017-09-29T10:06:58.846Z,69.91
2017-09-29T10:09:28.078Z,69.87
2017-09-29T10:11:56.526Z,69.72
2017-09-29T10:14:25.763Z,68.99
2017-09-29T10:16:54.237Z,68.24
2017-09-29T10:19:22.727Z,68.57
2017-09-29T10:21:51.174Z,67.93
2017-09-29T10:24:20.511Z,68.22
2017-09-29T10:26:48.974Z,67.65
2017-09-29T10:29:17.477Z,67.52
2017-09-29T10:31:45.958Z,66.64
2017-09-29T10:34:14.426Z,66.58
2017-09-29T10:36:42.869Z,66.19
2017-09-29T10:39:12.126Z,65.01
2017-09-29T10:41:40.569Z,65.13
2017-09-29T10:44:09.777Z,64.99
2017-09-29T10:46:38.245Z,65.65
2017-09-29T10:49:07.479Z,64.18
2017-09-29T10:51:35.951Z,63.45
2017-09-29T10:54:04.445Z,64.12
2017-09-29T10:56:32.949Z,64.46
2017-09-29T10:59:01.394Z,64.28
2017-09-29T11:01:29.861Z,64.33
2017-09-29T11:03:58.385Z,64.20
2017-09-29T11:06:26.957Z,64.71
2017-09-29T11:08:55.401Z,64.72
2017-09-29T11:11:24.628Z,64.52
2017-09-29T11:13:53.074Z,63.48
2017-09-29T11:16:22.308Z,63.94
2017-09-29T11:18:50.758Z,63.72
2017-09-29T11:21:20.011Z,63.76
2017-09-29T11:23:48.456Z,63.73
2017-09-29T11:26:17.169Z,63.53
2017-09-29T11:28:45.623Z,63.70
2017-09-29T11:31:14.077Z,63.09
2017-09-29T11:33:43.322Z,62.72
2017-09-29T11:36:11.777Z,63.48
2017-09-29T11:38:41.014Z,63.05
2017-09-29T11:41:09.462Z,63.45
2017-09-29T11:43:37.926Z,62.56
2017-09-29T11:46:07.176Z,63.06
2017-09-29T11:48:35.701Z,62.77
2017-09-29T11:51:04.238Z,62.67
2017-09-29T11:53:32.827Z,62.34
2017-09-29T11:56:01.281Z,62.80
2017-09-29T11:58:29.895Z,62.31
2017-09-29T12:00:58.337Z,61.76
2017-09-29T12:03:27.569Z,62.00
2017-09-29T12:05:56.026Z,62.22
2017-09-29T12:08:24.538Z,62.46
2017-09-29T12:10:52.982Z,62.44
2017-09-29T12:13:22.222Z,62.31
2017-09-29T12:15:50.701Z,61.99
2017-09-29T12:18:19.174Z,61.93
2017-09-29T12:20:47.661Z,61.39
2017-09-29T12:23:16.146Z,61.27
2017-09-29T12:25:44.618Z,61.71
2017-09-29T12:28:13.073Z,61.14
2017-09-29T12:30:42.309Z,60.97
2017-09-29T12:33:10.752Z,60.83
2017-09-29T12:35:39.981Z,60.85
2017-09-29T12:38:08.420Z,60.56
2017-09-29T12:40:37.765Z,60.63
2017-09-29T12:43:06.210Z,60.93
2017-09-29T12:45:35.446Z,60.26
2017-09-29T12:48:03.936Z,60.12
2017-09-29T12:50:32.409Z,60.24
2017-09-29T12:53:00.853Z,60.09
2017-09-29T12:55:30.101Z,60.24
2017-09-29T12:57:58.544Z,59.18
2017-09-29T13:00:27.779Z,59.58
2017-09-29T13:02:56.366Z,58.67
2017-09-29T13:05:24.847Z,59.07
2017-09-29T13:07:53.426Z,58.18
2017-09-29T13:10:21.913Z,58.40
2017-09-29T13:12:50.382Z,58.90
2017-09-29T13:15:18.829Z,58.07
2017-09-29T13:17:48.062Z,59.08
2017-09-29T13:20:16.510Z,59.50
2017-09-29T13:22:45.740Z,58.43
2017-09-29T13:25:14.240Z,58.47
2017-09-29T13:27:42.696Z,58.87
2017-09-29T13:30:11.306Z,59.34
2017-09-29T13:32:39.885Z,58.68
2017-09-29T13:35:08.335Z,57.73
2017-09-29T13:37:37.569Z,58.02
2017-09-29T13:40:06.155Z,58.04
2017-09-29T13:42:34.606Z,57.86
2017-09-29T13:45:03.073Z,58.38
2017-09-29T13:47:32.286Z,58.82
2017-09-29T13:50:01.520Z,58.30
2017-09-29T13:52:29.965Z,58.14
2017-09-29T13:54:59.306Z,58.31
2017-09-29T13:57:27.748Z,58.72
2017-09-29T13:59:57.078Z,58.44
2017-09-29T14:02:25.526Z,58.23
2017-09-29T14:04:54.763Z,58.32
2017-09-29T14:07:23.214Z,58.54
2017-09-29T14:09:51.731Z,58.95
2017-09-29T14:12:20.185Z,58.98
2017-09-29T14:14:48.692Z,59.21
2017-09-29T14:17:17.138Z,59.31
2017-09-29T14:19:46.354Z,59.59
2017-09-29T14:22:14.825Z,59.41
2017-09-29T14:24:43.336Z,59.67
2017-09-29T14:27:11.801Z,59.49
2017-09-29T14:29:40.252Z,59.60
2017-09-29T14:32:09.604Z,60.03
2017-09-29T14:34:38.078Z,60.17
2017-09-29T14:37:06.586Z,60.16
2017-09-29T14:39:35.042Z,60.07
2017-09-29T14:42:03.513Z,60.08
2017-09-29T14:44:32.005Z,60.11
2017-09-29T14:47:00.473Z,60.68
2017-09-29T14:49:28.977Z,60.17
2017-09-29T14:51:57.440Z,61.02
2017-09-29T14:54:25.876Z,60.85
2017-09-29T14:56:54.419Z,60.85
2017-09-29T14:59:22.885Z,60.72
2017-09-29T15:01:51.329Z,60.64
2017-09-29T15:04:20.561Z,60.26
2017-09-29T15:06:49.005Z,60.47
2017-09-29T15:09:17.469Z,60.49
2017-09-29T15:11:46.031Z,61.01
2017-09-29T15:14:14.513Z,61.17
2017-09-29T15:16:42.998Z,61.31
2017-09-29T15:19:11.464Z,60.98
2017-09-29T15:21:39.910Z,61.15
2017-09-29T15:24:09.150Z,61.00
2017-09-29T15:26:37.593Z,61.18
2017-09-29T15:29:06.940Z,61.35
2017-09-29T15:31:36.349Z,61.72
2017-09-29T15:34:04.815Z,61.81
2017-09-29T15:36:33.256Z,61.94
2017-09-29T15:39:02.601Z,61.97
2017-09-29T15:41:31.093Z,62.03
2017-09-29T15:43:59.561Z,61.76
2017-09-29T15:46:28.067Z,62.85
2017-09-29T15:48:56.512Z,62.43
2017-09-29T15:51:25.029Z,62.57
2017-09-29T15:53:53.477Z,62.63
2017-09-29T15:56:21.983Z,62.93
2017-09-29T15:58:50.462Z,62.84
2017-09-29T16:01:18.942Z,62.84
2017-09-29T16:03:47.381Z,62.91
2017-09-29T16:06:16.608Z,63.04
2017-09-29T16:08:45.109Z,63.00
2017-09-29T16:11:13.577Z,63.35
2017-09-29T16:13:42.074Z,63.70
2017-09-29T16:16:10.536Z,63.00
2017-09-29T16:18:38.982Z,62.90
2017-09-29T16:21:07.445Z,63.56
2017-09-29T16:23:35.889Z,63.58
2017-09-29T16:26:04.380Z,63.41
2017-09-29T16:28:32.858Z,63.72
2017-09-29T16:31:01.305Z,64.15
2017-09-29T16:33:30.539Z,64.04
2017-09-29T16:35:59.022Z,64.22
2017-09-29T16:38:27.509Z,64.20
2017-09-29T16:40:55.957Z,64.77
2017-09-29T16:43:25.285Z,64.55
2017-09-29T16:45:53.725Z,64.76
2017-09-29T16:48:23.062Z,65.72
2017-09-29T16:50:51.505Z,65.83
2017-09-29T16:53:20.741Z,66.36
2017-09-29T16:55:49.194Z,66.02
2017-09-29T16:58:18.533Z,66.65
2017-09-29T17:00:46.982Z,66.89
2017-09-29T17:03:16.426Z,66.61
2017-09-29T17:05:44.868Z,66.65
2017-09-29T17:08:14.156Z,66.79
2017-09-29T17:10:43.389Z,66.37
2017-09-29T17:13:11.833Z,67.47
2017-09-29T17:15:40.302Z,68.26
2017-09-29T17:18:08.852Z,67.93
2017-09-29T17:20:37.437Z,67.47
2017-09-29T17:23:05.923Z,67.65
2017-09-29T17:25:34.386Z,67.06
2017-09-29T17:28:02.877Z,66.92
2017-09-29T17:30:31.353Z,67.11
2017-09-29T17:32:59.801Z,67.43
2017-09-29T17:35:29.029Z,67.31
2017-09-29T17:37:57.479Z,68.15
2017-09-29T17:40:26.705Z,68.05
2017-09-29T17:42:55.208Z,68.81
2017-09-29T17:45:23.697Z,68.82
2017-09-29T17:47:52.172Z,69.63
2017-09-29T17:50:20.621Z,69.13
2017-09-29T17:52:49.852Z,68.79
2017-09-29T17:55:18.337Z,68.77
2017-09-29T17:57:47.023Z,67.93
2017-09-29T18:00:15.504Z,67.52
2017-09-29T18:02:43.970Z,67.75
2017-09-29T18:05:12.479Z,67.24
2017-09-29T18:07:41.047Z,66.57
2017-09-29T18:10:09.534Z,65.98
2017-09-29T18:12:38.017Z,66.00
2017-09-29T18:15:07.216Z,66.42
2017-09-29T18:17:35.686Z,65.86
2017-09-29T18:20:04.129Z,65.56
2017-09-29T18:22:33.362Z,64.87
2017-09-29T18:25:01.801Z,65.10
2017-09-29T18:27:30.270Z,64.94
2017-09-29T18:29:58.713Z,64.35
2017-09-29T18:32:27.153Z,64.63
2017-09-29T18:34:56.390Z,64.58
2017-09-29T18:37:24.885Z,64.70
2017-09-29T18:39:53.354Z,65.14
2017-09-29T18:42:21.852Z,65.43
2017-09-29T18:47:56.080Z,65.86
2017-09-29T18:50:24.558Z,65.75
2017-09-29T18:52:53.002Z,66.34
2017-09-29T18:55:22.229Z,65.71
2017-09-29T18:57:50.677Z,65.81
2017-09-29T19:00:20.027Z,66.03
2017-09-29T19:02:48.509Z,65.96
2017-09-29T19:05:17.104Z,66.10
2017-09-29T19:07:45.550Z,65.94
2017-09-29T19:10:14.789Z,65.93
2017-09-29T19:12:43.238Z,65.97
2017-09-29T19:15:11.730Z,66.49
2017-09-29T19:17:40.198Z,66.40
2017-09-29T19:20:08.642Z,66.61
2017-09-29T19:22:37.109Z,65.92
2017-09-29T19:25:05.549Z,66.56
2017-09-29T19:27:34.054Z,66.43
2017-09-29T19:30:02.535Z,65.57
2017-09-29T19:32:31.034Z,65.90
2017-09-29T19:34:59.499Z,65.35
2017-09-29T19:37:28.081Z,65.15
2017-09-29T19:39:56.564Z,65.89
2017-09-29T19:42:25.153Z,65.94
2017-09-29T19:44:53.599Z,65.75
2017-09-29T19:47:22.833Z,65.67
2017-09-29T19:49:51.273Z,65.65
2017-09-29T19:52:20.511Z,65.46
2017-09-29T19:54:48.994Z,65.23
2017-09-29T19:57:17.481Z,65.80
2017-09-29T19:59:45.925Z,65.77
2017-09-29T20:02:15.137Z,65.73
2017-09-29T20:04:45.178Z,65.88
2017-09-29T20:07:13.618Z,65.35
2017-09-29T20:09:42.849Z,65.37
2017-09-29T20:12:11.338Z,65.28
2017-09-29T20:14:39.911Z,65.23
2017-09-29T20:17:08.357Z,65.79
2017-09-29T20:19:37.685Z,65.57
2017-09-29T20:22:06.186Z,65.65
2017-09-29T20:24:34.649Z,65.80
2017-09-29T20:27:03.085Z,65.67
2017-09-29T20:29:31.626Z,66.55
2017-09-29T20:32:00.113Z,65.98
2017-09-29T20:34:28.581Z,66.13
2017-09-29T20:36:57.021Z,66.02
2017-09-29T20:39:25.477Z,65.66
2017-09-29T20:41:53.950Z,65.85
2017-09-29T20:44:22.396Z,65.87
2017-09-29T20:46:50.870Z,66.34
2017-09-29T20:49:20.077Z,66.00
2017-09-29T20:51:48.550Z,66.58
2017-09-29T20:54:17.762Z,66.43
2017-09-29T20:56:46.259Z,66.76
2017-09-29T20:59:14.709Z,67.24
2017-09-29T21:01:43.945Z,67.16
2017-09-29T21:04:12.393Z,67.27
2017-09-29T21:06:41.723Z,67.37
2017-09-29T21:09:10.205Z,67.58
2017-09-29T21:11:38.669Z,67.78
2017-09-29T21:14:07.124Z,67.60
2017-09-29T21:16:36.357Z,68.25
2017-09-29T21:19:04.797Z,67.74
2017-09-29T21:21:33.333Z,67.83
2017-09-29T21:24:01.805Z,67.84
2017-09-29T21:26:30.261Z,67.95
2017-09-29T21:28:59.488Z,68.38
2017-09-29T21:31:27.934Z,68.34
2017-09-29T21:33:57.169Z,69.11
2017-09-29T21:36:25.612Z,68.74
2017-09-29T21:38:54.844Z,69.22
2017-09-29T21:41:23.289Z,68.89
2017-09-29T21:43:51.762Z,68.82
2017-09-29T21:46:20.964Z,69.13
2017-09-29T21:48:49.437Z,68.67
2017-09-29T21:51:17.888Z,68.90
2017-09-29T21:53:46.474Z,69.00
2017-09-29T21:56:14.955Z,69.19
2017-09-29T21:58:43.421Z,69.30
2017-09-29T22:01:11.919Z,69.59
2017-09-29T22:03:40.506Z,69.37
2017-09-29T22:06:08.945Z,69.42
2017-09-29T22:08:38.157Z,69.69
2017-09-29T22:11:06.626Z,69.77
2017-09-29T22:13:35.841Z,69.87
2017-09-29T22:16:04.309Z,69.91
2017-09-29T22:18:33.545Z,69.79
2017-09-29T22:21:02.126Z,70.01
2017-09-29T22:23:30.569Z,70.35
2017-09-29T22:25:59.913Z,70.42
2017-09-29T22:28:28.888Z,70.76
2017-09-29T22:30:57.388Z,70.64
2017-09-29T22:33:25.866Z,70.95
2017-09-29T22:35:54.353Z,71.53
2017-09-29T22:38:22.830Z,71.57
2017-09-29T22:40:51.317Z,71.42
2017-09-29T22:43:19.794Z,72.24
2017-09-29T22:45:48.241Z,71.99
2017-09-29T22:48:17.479Z,71.79
2017-09-29T22:50:45.930Z,72.09
2017-09-29T22:53:15.257Z,72.17
2017-09-29T22:55:43.746Z,72.21
2017-09-29T22:58:12.218Z,72.55
2017-09-29T23:00:40.678Z,72.56
2017-09-29T23:03:09.907Z,72.78
2017-09-29T23:05:38.353Z,72.83
2017-09-29T23:08:07.674Z,73.21
2017-09-29T23:10:36.172Z,73.66
2017-09-29T23:13:04.646Z,73.29
2017-09-29T23:15:33.140Z,73.41
2017-09-29T23:18:01.601Z,73.69
2017-09-29T23:20:30.045Z,73.86
2017-09-29T23:22:58.584Z,73.86
2017-09-29T23:25:27.029Z,73.90
2017-09-29T23:27:56.242Z,74.18
2017-09-29T23:30:24.705Z,73.92
2017-09-29T23:32:53.913Z,74.29
2017-09-29T23:35:23.246Z,74.34
2017-09-29T23:37:51.724Z,74.50
2017-09-29T23:40:20.198Z,74.63
2017-09-29T23:42:48.693Z,74.61
2017-09-29T23:45:17.278Z,74.73
2017-09-29T23:47:45.725Z,74.92
2017-09-29T23:50:14.962Z,75.07
2017-09-29T23:52:43.434Z,75.31
2017-09-29T23:55:11.911Z,75.42
2017-09-29T23:57:40.404Z,75.28
